Copper Harbor, MI

8:16 PM EDT on September 18, 2014 (GMT -0400)
The Ridge at Hill Mine | Change Station
CLOSE
Current Station
Personal Weather Station
Location: Michigan, MI
Elevation: 1234 ft
Nearby Weather Stations

Elev 1234 ft 47.42 °N, 88.20 °W | Updated 1 minute ago

Overcast
Overcast
43.9 °F
Feels Like 39 °F
N
9.8
Wind Variable Wind from SSW
Gusts 15.4 mph

Today
High -- | Low -- °F
--% Chance of Precip.
Yesterday
High -- | Low -- °F
Precip. -- in
7:32 AM 7:57 PM
Waning Crescent, 23% visible
Pressure 30.14 in
Visibility 10.0 miles
Clouds Overcast 3300 ft
Windchill 39 °F
Dew Point 40 °F
Humidity 86%
Rainfall 0.00 in
Snow Depth Not available.
UV 0 out of 12
Pollen 2.10 out of 12
Air Quality Not available.
Flu Activity Not available.
METAR KCMX 182353Z AUTO 10008KT 10SM OVC033 07/04 A3011 RMK AO2 SLP204 T00720039 10106 20072 56013 $

More Conditions Fewer Conditions

Pressure 30.14 in
Visibility 10.0 miles
Clouds Overcast 3300 ft
Windchill 39 °F
Dew Point 40 °F
Humidity 86%
Rainfall 0.00 in
Snow Depth Not available.
UV 0 out of 12
Pollen 2.10 out of 12
Air Quality Not available.
Flu Activity Not available.
METAR KCMX 182353Z AUTO 10008KT 10SM OVC033 07/04 A3011 RMK AO2 SLP204 T00720039 10106 20072 56013 $

More Conditions Fewer Conditions

10-Day Weather Forecast

Almanac

Astronomy

Sep. 18, 2014 Rise Set
Actual Time 7:32 AM EDT 7:57 PM EDT
Civil Twilight 7:02 AM EDT 8:28 PM EDT
Nautical Twilight 6:25 AM EDT 9:04 PM EDT
Astronomical Twilight 5:47 AM EDT 9:42 PM EDT
Moon 2:08 AM EDT (9/18) 5:03 PM EDT (9/18)
Length of Visible Light 13h 26m
Length of Day
12h 24m
Tomorrow will be 3m 23s shorter.
Waning Crescent, 23% of the Moon is Illuminated
Today
Waning Crescent
Sep 24
New
Oct 1
First Quarter
Oct 8
Full
Oct 15
Last Quarter

Today's Extremes

State Highs State Lows

Community

WunderPhotos

Upload Photos

1,754,501 photos uploaded!

WunderBlogs® & News

Nearby

Snow Depth

Station Depth Elevation
No new snow has been reported.

Earthquake Activity

City Distance Mag. Time & Date
No recent earthquake activity has been reported nearby.
Minimum magnitude displayed is 2.5.

Coastal Water Temperatures

Place Temperature
No Stations Reporting

Nearby Weather Stations